Time;durP1;ratioP1;P1;durP2;ratioP2;P2;SDS_P1;SDS_P2;PMS_P1;PMS_P2;Temp;Humidity;BMP_temperature;BMP_pressure;BME280_temperature;BME280_humidity;BME280_pressure;Samples;Min_cycle;Max_cycle;Signal;HPM_P1;HPM_P2
2023/01/18 00:00:42;;;;;;;33.15;16.90;;;-1.00;99.90;;;;;;5094317;28;20412;-74
2023/01/18 00:03:12;;;;;;;32.43;17.60;;;-1.00;99.90;;;;;;5094147;28;20386;-72
2023/01/18 00:05:41;;;;;;;32.28;17.60;;;-1.00;99.90;;;;;;5094501;28;20374;-72
2023/01/18 00:08:12;;;;;;;33.05;18.42;;;-1.10;99.90;;;;;;5094532;28;20389;-73
2023/01/18 00:10:39;;;;;;;35.90;18.20;;;-1.00;99.90;;;;;;5094729;28;20922;-74
2023/01/18 00:13:05;;;;;;;30.83;18.83;;;-1.00;99.90;;;;;;5094192;28;20439;-73
2023/01/18 00:15:31;;;;;;;34.92;16.67;;;-0.80;99.90;;;;;;5094430;28;20377;-73
2023/01/18 00:17:57;;;;;;;35.10;19.33;;;-0.80;99.90;;;;;;5094140;28;20394;-74
2023/01/18 00:20:24;;;;;;;35.80;17.57;;;-0.80;99.90;;;;;;5094147;28;20378;-75
2023/01/18 00:22:51;;;;;;;38.42;20.05;;;-0.90;99.90;;;;;;5093713;28;20374;-72
2023/01/18 00:25:18;;;;;;;32.85;18.95;;;-1.00;99.90;;;;;;5093668;28;20414;-72
2023/01/18 00:27:49;;;;;;;33.40;18.45;;;-1.00;99.90;;;;;;5093744;28;20394;-72
2023/01/18 00:30:17;;;;;;;37.08;17.63;;;-1.00;99.90;;;;;;5093904;28;20380;-73
2023/01/18 00:32:43;;;;;;;35.70;19.17;;;-1.00;99.90;;;;;;5093302;28;20382;-73
2023/01/18 00:35:09;;;;;;;32.57;18.27;;;-1.00;99.90;;;;;;5093576;28;20378;-72
2023/01/18 00:37:35;;;;;;;33.90;17.38;;;-1.10;99.90;;;;;;5093333;28;20435;-74
2023/01/18 00:40:02;;;;;;;33.38;16.67;;;-1.10;99.90;;;;;;5094020;28;20405;-73
2023/01/18 00:45:12;;;;;;;31.70;17.90;;;-1.10;99.90;;;;;;5092890;28;20372;-71
2023/01/18 00:47:38;;;;;;;35.58;18.30;;;-1.10;99.90;;;;;;5092934;28;20385;-73
2023/01/18 00:50:04;;;;;;;31.93;17.73;;;-1.20;99.90;;;;;;5093040;28;20919;-71
2023/01/18 00:52:29;;;;;;;33.00;17.10;;;-1.30;99.90;;;;;;5092224;28;20381;-72
2023/01/18 00:54:55;;;;;;;36.83;18.53;;;-1.30;99.90;;;;;;5092630;28;20449;-74
2023/01/18 00:57:20;;;;;;;34.40;18.00;;;-1.30;99.90;;;;;;5092498;28;20436;-75
2023/01/18 00:59:46;;;;;;;33.17;17.13;;;-1.20;99.90;;;;;;5092787;28;20493;-75
2023/01/18 01:02:12;;;;;;;33.38;18.52;;;-1.30;99.90;;;;;;5092158;28;20931;-73
2023/01/18 01:07:22;;;;;;;30.70;18.17;;;-1.30;99.90;;;;;;5092256;28;20406;-73
2023/01/18 01:09:47;;;;;;;32.28;18.48;;;-1.40;99.90;;;;;;5092170;28;20889;-72
2023/01/18 01:26:07;;;;;;;40.50;19.27;;;-1.20;99.90;;;;;;5094311;28;20369;-72
2023/01/18 01:28:38;;;;;;;32.30;18.33;;;-1.30;99.90;;;;;;5096235;28;20426;-72
2023/01/18 01:31:06;;;;;;;34.57;18.93;;;-1.30;99.90;;;;;;5099728;28;20386;-71
2023/01/18 01:33:32;;;;;;;33.05;19.33;;;-1.30;99.90;;;;;;5100622;28;20374;-71
2023/01/18 01:36:00;;;;;;;35.30;19.60;;;-1.10;99.90;;;;;;5105905;28;20437;-73
2023/01/18 01:38:26;;;;;;;34.15;18.65;;;-1.20;99.90;;;;;;5095751;28;20877;-74
2023/01/18 01:41:00;;;;;;;34.75;18.50;;;-1.30;99.90;;;;;;5092384;28;20386;-73
2023/01/18 01:43:43;;;;;;;37.03;18.70;;;-1.40;99.90;;;;;;5092432;28;20372;-72
2023/01/18 01:46:25;;;;;;;37.40;18.90;;;-1.40;99.90;;;;;;5074705;28;20865;-72
2023/01/18 01:49:16;;;;;;;33.20;19.38;;;-1.40;99.90;;;;;;5093103;28;20855;-73
2023/01/18 01:51:45;;;;;;;34.47;18.65;;;-1.30;99.90;;;;;;5103208;28;20390;-72
2023/01/18 01:54:30;;;;;;;37.88;19.05;;;-1.30;99.90;;;;;;5096841;28;20519;-72
2023/01/18 01:57:05;;;;;;;32.45;18.45;;;-1.40;99.90;;;;;;5092272;28;20402;-71
2023/01/18 01:59:34;;;;;;;36.67;19.30;;;-1.40;99.90;;;;;;5092240;28;20378;-74
2023/01/18 02:01:59;;;;;;;33.33;17.88;;;-1.20;99.90;;;;;;5092737;28;20386;-74
2023/01/18 02:04:25;;;;;;;34.23;18.10;;;-1.10;99.90;;;;;;5092817;28;20915;-74
2023/01/18 02:06:51;;;;;;;33.72;18.50;;;-1.10;99.90;;;;;;5092711;28;20850;-72
2023/01/18 02:09:21;;;;;;;31.00;18.05;;;-1.20;99.90;;;;;;5092359;28;20443;-72
2023/01/18 02:11:49;;;;;;;36.95;19.83;;;-1.20;99.90;;;;;;5092314;28;20386;-74
2023/01/18 02:14:15;;;;;;;34.92;19.10;;;-1.30;99.90;;;;;;5074451;28;20464;-73
2023/01/18 02:17:02;;;;;;;34.83;18.70;;;-1.40;99.90;;;;;;5092449;28;20474;-74
2023/01/18 02:19:30;;;;;;;40.78;19.13;;;-1.40;99.90;;;;;;5093517;28;20388;-71
2023/01/18 02:22:13;;;;;;;35.30;18.80;;;-1.50;99.90;;;;;;5092213;28;20427;-74
2023/01/18 02:25:01;;;;;;;37.22;19.25;;;-1.50;99.90;;;;;;5092441;28;20489;-73
2023/01/18 02:27:34;;;;;;;34.97;18.92;;;-1.50;99.90;;;;;;5092096;28;20487;-72
2023/01/18 02:30:28;;;;;;;31.95;19.08;;;-1.50;99.90;;;;;;5091970;28;20399;-73
2023/01/18 02:33:14;;;;;;;36.55;20.17;;;-1.50;99.90;;;;;;5091754;28;20373;-72
2023/01/18 02:35:45;;;;;;;37.25;18.85;;;-1.40;99.90;;;;;;5091866;28;20374;-73
2023/01/18 02:38:43;;;;;;;36.05;18.40;;;-1.40;99.90;;;;;;5091493;28;20402;-72
2023/01/18 02:47:20;;;;;;;33.90;18.17;;;-1.20;99.90;;;;;;5091304;28;20470;-73
2023/01/18 02:49:45;;;;;;;41.47;18.67;;;-1.30;99.90;;;;;;5091016;28;20390;-71
2023/01/18 02:52:35;;;;;;;33.93;18.50;;;-1.40;99.90;;;;;;5072681;28;20382;-72
2023/01/18 02:55:01;;;;;;;36.67;20.60;;;-1.50;99.90;;;;;;5091137;28;20908;-73
2023/01/18 02:57:28;;;;;;;35.15;19.25;;;-1.50;99.90;;;;;;5090605;28;20406;-72
2023/01/18 02:59:55;;;;;;;40.40;20.60;;;-1.60;99.90;;;;;;5072758;28;20414;-71
2023/01/18 03:02:23;;;;;;;39.97;19.70;;;-1.50;99.90;;;;;;5090869;28;20812;-72
2023/01/18 03:04:53;;;;;;;36.95;20.20;;;-1.60;99.90;;;;;;5091258;28;20813;-73
2023/01/18 03:07:29;;;;;;;37.67;19.50;;;-1.60;99.90;;;;;;5092131;28;20404;-73
2023/01/18 03:09:56;;;;;;;37.10;20.00;;;-1.60;99.90;;;;;;5092294;28;20702;-72
2023/01/18 03:12:44;;;;;;;42.65;21.52;;;-1.60;99.90;;;;;;5091649;28;20414;-73
2023/01/18 03:15:19;;;;;;;35.47;19.92;;;-1.60;99.90;;;;;;5091668;28;20410;-72
2023/01/18 03:17:58;;;;;;;38.65;19.90;;;-1.60;99.90;;;;;;5091126;28;20406;-73
2023/01/18 03:20:31;;;;;;;36.95;19.80;;;-1.60;99.90;;;;;;5090986;28;20401;-73
2023/01/18 03:25:47;;;;;;;38.30;19.80;;;-1.60;99.90;;;;;;5090798;28;20373;-73
2023/01/18 03:33:57;;;;;;;33.88;20.00;;;-1.60;99.90;;;;;;5091118;28;20377;-73
2023/01/18 03:36:29;;;;;;;36.65;19.88;;;-1.60;99.90;;;;;;5090561;28;20398;-72
2023/01/18 03:39:06;;;;;;;46.83;20.10;;;-1.70;99.90;;;;;;5094025;28;20362;-73
2023/01/18 03:41:42;;;;;;;40.50;20.75;;;-1.70;99.90;;;;;;5094012;28;20402;-74
2023/01/18 03:44:15;;;;;;;40.88;20.95;;;-1.70;99.90;;;;;;5094269;28;20914;-74
2023/01/18 03:46:42;;;;;;;39.40;20.40;;;-1.70;99.90;;;;;;5094073;28;20389;-72
2023/01/18 03:49:10;;;;;;;35.00;19.77;;;-1.70;99.90;;;;;;5094319;28;20843;-74
2023/01/18 03:52:07;;;;;;;38.70;20.40;;;-1.50;99.90;;;;;;5093882;28;20455;-73
2023/01/18 03:55:02;;;;;;;38.13;20.30;;;-1.50;99.90;;;;;;5094116;28;20859;-73
2023/01/18 03:57:36;;;;;;;38.13;20.75;;;-1.60;99.90;;;;;;5093989;28;20401;-72
2023/01/18 04:00:04;;;;;;;42.30;19.60;;;-1.70;99.90;;;;;;5094397;28;20863;-73
2023/01/18 04:02:30;;;;;;;35.45;20.80;;;-1.70;99.90;;;;;;5094451;28;20716;-71
2023/01/18 04:04:57;;;;;;;35.35;19.95;;;-1.70;99.90;;;;;;5095027;28;20381;-72
2023/01/18 04:07:24;;;;;;;35.15;19.48;;;-1.70;99.90;;;;;;5095313;28;20389;-72
2023/01/18 04:09:50;;;;;;;35.70;19.57;;;-1.70;99.90;;;;;;5095514;28;20384;-72
2023/01/18 04:12:16;;;;;;;41.92;19.90;;;-1.70;99.90;;;;;;5101575;28;20404;-72
2023/01/18 04:14:42;;;;;;;37.47;20.38;;;-1.80;99.90;;;;;;5104876;28;20386;-72
2023/01/18 04:17:07;;;;;;;37.23;20.10;;;-1.70;99.90;;;;;;5102886;28;20529;-71
2023/01/18 04:19:33;;;;;;;38.20;21.13;;;-1.70;99.90;;;;;;5101758;28;20415;-72
2023/01/18 04:21:58;;;;;;;39.43;21.23;;;-1.80;99.90;;;;;;5099993;28;20720;-72
2023/01/18 04:24:24;;;;;;;37.97;20.73;;;-1.70;99.90;;;;;;5105437;28;20383;-72
2023/01/18 04:26:50;;;;;;;36.67;19.50;;;-1.80;99.90;;;;;;5104135;28;20397;-73
2023/01/18 04:29:16;;;;;;;37.73;20.80;;;-1.80;99.90;;;;;;5104271;28;20435;-73
2023/01/18 04:31:41;;;;;;;38.13;21.38;;;-1.80;99.90;;;;;;5104251;28;20378;-73
2023/01/18 04:34:07;;;;;;;38.63;20.90;;;-1.80;99.90;;;;;;5097089;28;20386;-75
2023/01/18 04:36:32;;;;;;;39.30;20.48;;;-1.80;99.90;;;;;;5092834;28;20425;-74
2023/01/18 04:38:58;;;;;;;37.28;21.08;;;-1.80;99.90;;;;;;5093121;28;20386;-72
2023/01/18 04:41:24;;;;;;;32.67;19.90;;;-1.70;99.90;;;;;;5092983;28;20429;-72
2023/01/18 04:43:49;;;;;;;38.80;19.87;;;-1.80;99.90;;;;;;5092674;28;20378;-73
2023/01/18 04:46:15;;;;;;;42.90;21.00;;;-1.80;99.90;;;;;;5093046;28;20386;-74
2023/01/18 04:48:41;;;;;;;42.07;21.10;;;-1.80;99.90;;;;;;5091533;28;20465;-71
2023/01/18 04:51:13;;;;;;;41.90;21.17;;;-1.70;99.90;;;;;;5092732;28;20382;-72
2023/01/18 04:53:42;;;;;;;40.03;21.23;;;-1.60;99.90;;;;;;5092497;28;20473;-72
2023/01/18 04:56:09;;;;;;;40.90;21.80;;;-1.60;99.90;;;;;;5092241;28;20382;-71
2023/01/18 04:58:36;;;;;;;38.25;20.60;;;-1.60;99.90;;;;;;5092352;28;20413;-72
2023/01/18 05:01:03;;;;;;;42.05;21.42;;;-1.60;99.90;;;;;;5092530;28;20382;-75
2023/01/18 05:03:29;;;;;;;40.80;21.90;;;-1.60;99.90;;;;;;5092317;28;20378;-73
2023/01/18 05:05:57;;;;;;;40.42;22.00;;;-1.50;99.90;;;;;;5092400;28;20393;-72
2023/01/18 05:08:23;;;;;;;41.40;21.58;;;-1.50;99.90;;;;;;5092383;28;20374;-72
2023/01/18 05:10:49;;;;;;;45.40;22.00;;;-1.50;99.90;;;;;;5074182;28;20740;-73
2023/01/18 05:13:14;;;;;;;43.28;22.10;;;-1.50;99.90;;;;;;5092163;28;20895;-70
2023/01/18 05:15:40;;;;;;;47.27;23.10;;;-1.50;99.90;;;;;;5092276;28;20789;-73
2023/01/18 05:18:06;;;;;;;39.23;21.73;;;-1.40;99.90;;;;;;5092184;28;20402;-72
2023/01/18 05:20:31;;;;;;;44.05;23.75;;;-1.40;99.90;;;;;;5092163;28;20374;-72
2023/01/18 05:22:57;;;;;;;41.67;23.00;;;-1.40;99.90;;;;;;5073806;28;20374;-71
2023/01/18 05:25:22;;;;;;;51.33;23.87;;;-1.40;99.90;;;;;;5092419;28;20414;-72
2023/01/18 05:27:48;;;;;;;45.90;25.42;;;-1.40;99.90;;;;;;5092138;28;20389;-72
2023/01/18 05:30:14;;;;;;;40.97;24.63;;;-1.40;99.90;;;;;;5092373;28;20388;-73
2023/01/18 05:32:40;;;;;;;46.28;24.35;;;-1.40;99.90;;;;;;5092372;28;20867;-72
2023/01/18 05:35:06;;;;;;;46.07;24.20;;;-1.10;99.90;;;;;;5092267;28;20751;-72
2023/01/18 05:37:31;;;;;;;42.92;23.30;;;-1.20;99.90;;;;;;5091911;28;20436;-72
2023/01/18 05:39:58;;;;;;;49.20;24.43;;;-1.20;99.90;;;;;;5092806;28;20414;-74
2023/01/18 05:42:23;;;;;;;45.75;24.15;;;-1.30;99.90;;;;;;5091982;28;20812;-73
2023/01/18 05:44:49;;;;;;;45.53;24.97;;;-1.30;99.90;;;;;;5092286;28;20453;-73
2023/01/18 05:47:15;;;;;;;42.30;23.80;;;-1.30;99.90;;;;;;5091612;28;20737;-73
2023/01/18 05:49:40;;;;;;;45.95;24.50;;;-1.30;99.90;;;;;;5091647;28;20397;-72
2023/01/18 05:52:07;;;;;;;45.07;25.07;;;-1.40;99.90;;;;;;5091784;28;20386;-72
2023/01/18 05:54:32;;;;;;;48.33;24.60;;;-1.40;99.90;;;;;;5091478;28;20435;-74
2023/01/18 05:56:58;;;;;;;47.70;25.20;;;-1.40;99.90;;;;;;5091598;28;20771;-73
2023/01/18 05:59:23;;;;;;;47.53;25.92;;;-1.40;99.90;;;;;;5092527;28;20780;-73
2023/01/18 06:01:49;;;;;;;49.33;25.07;;;-1.40;99.90;;;;;;5091758;28;20744;-74
2023/01/18 06:04:14;;;;;;;43.03;24.73;;;-1.40;99.90;;;;;;5091863;28;20468;-74
2023/01/18 06:06:40;;;;;;;49.97;24.38;;;-1.30;99.90;;;;;;5092055;28;20425;-72
2023/01/18 06:09:06;;;;;;;45.60;24.48;;;-1.30;99.90;;;;;;5091972;28;20374;-74
2023/01/18 06:11:31;;;;;;;46.50;25.13;;;-1.30;99.90;;;;;;5073102;28;20477;-73
2023/01/18 06:13:57;;;;;;;49.17;25.10;;;-1.30;99.90;;;;;;5091709;28;20386;-73
2023/01/18 06:16:23;;;;;;;53.73;26.90;;;-1.30;99.90;;;;;;5091928;28;20507;-73
2023/01/18 06:18:48;;;;;;;41.25;25.88;;;-1.30;99.90;;;;;;5091456;28;20473;-74
2023/01/18 06:21:14;;;;;;;42.25;24.80;;;-1.40;99.90;;;;;;5091364;28;20457;-71
2023/01/18 06:23:40;;;;;;;47.20;26.02;;;-1.40;99.90;;;;;;5091814;28;20374;-74
2023/01/18 06:26:05;;;;;;;43.70;24.80;;;-1.30;99.90;;;;;;5091957;28;20416;-75
2023/01/18 06:28:31;;;;;;;44.25;26.00;;;-1.40;99.90;;;;;;5092928;28;20370;-74
2023/01/18 06:30:57;;;;;;;50.85;25.20;;;-1.40;99.90;;;;;;5095479;28;20385;-73
2023/01/18 06:33:23;;;;;;;47.13;25.87;;;-1.40;99.90;;;;;;5093032;28;20381;-73
2023/01/18 06:35:49;;;;;;;47.60;26.85;;;-1.40;99.90;;;;;;5093346;28;20381;-72
2023/01/18 06:38:14;;;;;;;54.92;25.50;;;-1.40;99.90;;;;;;5092640;28;20412;-73
2023/01/18 06:40:40;;;;;;;43.53;26.70;;;-1.40;99.90;;;;;;5092001;28;20434;-73
2023/01/18 06:43:07;;;;;;;47.47;26.50;;;-1.40;99.90;;;;;;5091655;28;20469;-73
2023/01/18 06:45:33;;;;;;;43.42;25.50;;;-1.40;99.90;;;;;;5072569;28;20505;-74
2023/01/18 06:47:58;;;;;;;52.97;25.90;;;-1.30;99.90;;;;;;5073173;28;20392;-74
2023/01/18 06:50:24;;;;;;;50.78;26.27;;;-1.30;99.90;;;;;;5090538;28;20436;-72
2023/01/18 06:52:50;;;;;;;46.42;25.52;;;-1.30;99.90;;;;;;5092572;28;20875;-76
2023/01/18 06:55:16;;;;;;;45.15;25.88;;;-1.30;99.90;;;;;;5091704;28;20442;-73
2023/01/18 06:57:41;;;;;;;41.87;25.83;;;-1.30;99.90;;;;;;5090651;28;20421;-72
2023/01/18 07:00:10;;;;;;;42.30;24.70;;;-1.30;99.90;;;;;;5095713;28;20394;-73
2023/01/18 07:02:36;;;;;;;45.92;25.25;;;-1.30;99.90;;;;;;5098139;28;20393;-74
2023/01/18 07:05:04;;;;;;;48.42;25.45;;;-1.30;99.90;;;;;;5091472;28;20397;-74
2023/01/18 07:07:29;;;;;;;45.67;26.60;;;-1.30;99.90;;;;;;5091274;28;20417;-74
2023/01/18 07:09:55;;;;;;;47.72;26.80;;;-1.20;99.90;;;;;;5091921;28;20451;-73
2023/01/18 07:12:21;;;;;;;46.17;26.20;;;-1.20;99.90;;;;;;5092355;28;20484;-74
2023/01/18 07:14:47;;;;;;;47.85;25.88;;;-1.20;99.90;;;;;;5095888;28;20436;-74
2023/01/18 07:17:13;;;;;;;47.55;25.98;;;-1.20;99.90;;;;;;5098553;28;20474;-73
2023/01/18 07:19:39;;;;;;;48.70;27.60;;;-1.20;99.90;;;;;;5103312;28;20373;-73
2023/01/18 07:22:04;;;;;;;50.80;28.30;;;-1.20;99.90;;;;;;5103589;28;20373;-72
2023/01/18 07:24:30;;;;;;;46.67;27.20;;;-1.10;99.90;;;;;;5100179;28;20384;-72
2023/01/18 07:26:58;;;;;;;51.00;27.60;;;-1.10;99.90;;;;;;5107537;28;20466;-72
2023/01/18 07:29:26;;;;;;;50.28;28.25;;;-1.10;99.90;;;;;;5103440;28;20444;-74
2023/01/18 07:31:52;;;;;;;45.53;27.92;;;-1.10;99.90;;;;;;5077484;28;20894;-74
2023/01/18 07:34:17;;;;;;;49.00;27.98;;;-1.10;99.90;;;;;;5096559;28;20443;-73
2023/01/18 07:36:43;;;;;;;49.93;28.70;;;-1.10;99.90;;;;;;5078454;28;20410;-74
2023/01/18 07:39:09;;;;;;;50.03;27.15;;;-1.10;99.90;;;;;;5078786;28;20374;-74
2023/01/18 07:41:35;;;;;;;48.75;26.25;;;-1.10;99.90;;;;;;5101207;28;20389;-73
2023/01/18 07:44:01;;;;;;;49.10;26.70;;;-1.10;99.90;;;;;;5101983;28;20389;-73
2023/01/18 07:46:27;;;;;;;48.92;28.10;;;-1.10;99.90;;;;;;5101062;28;20388;-73
2023/01/18 07:48:52;;;;;;;46.38;26.13;;;-1.10;99.90;;;;;;5100457;28;20724;-74
2023/01/18 07:51:21;;;;;;;48.03;27.30;;;-1.00;99.90;;;;;;5078844;28;20389;-74
2023/01/18 07:53:47;;;;;;;52.67;27.75;;;-1.00;99.90;;;;;;5098086;28;20447;-73
2023/01/18 07:56:15;;;;;;;51.55;28.35;;;-1.00;99.90;;;;;;5094623;28;20879;-74
2023/01/18 07:58:40;;;;;;;49.72;28.35;;;-1.00;99.90;;;;;;5094160;28;20409;-72
2023/01/18 08:01:12;;;;;;;50.83;27.57;;;-0.90;99.90;;;;;;5094188;28;20409;-74
2023/01/18 08:03:37;;;;;;;50.47;27.60;;;-0.80;99.90;;;;;;5094768;28;20382;-75
2023/01/18 08:06:06;;;;;;;57.37;28.10;;;-0.80;99.90;;;;;;5094130;28;20378;-72
2023/01/18 08:08:31;;;;;;;50.75;26.48;;;-0.80;99.90;;;;;;5094616;28;20393;-73
2023/01/18 08:10:59;;;;;;;46.88;26.23;;;-0.80;99.90;;;;;;5094638;28;20378;-72
2023/01/18 08:13:26;;;;;;;47.03;26.30;;;-0.90;99.90;;;;;;5094240;28;20378;-75
2023/01/18 08:15:52;;;;;;;46.22;27.27;;;-0.80;99.90;;;;;;5094405;28;20383;-74
2023/01/18 08:18:17;;;;;;;44.78;26.58;;;-0.80;99.90;;;;;;5095180;28;20433;-73
2023/01/18 08:20:47;;;;;;;51.37;27.43;;;-0.70;99.90;;;;;;5095155;28;20436;-72
2023/01/18 08:23:14;;;;;;;50.50;27.58;;;-0.70;99.90;;;;;;5095692;28;20830;-74
2023/01/18 08:25:40;;;;;;;46.88;27.27;;;-0.60;99.90;;;;;;5095718;28;20459;-74
2023/01/18 08:28:06;;;;;;;44.08;26.90;;;-0.60;99.40;;;;;;5095094;28;20410;-74
2023/01/18 08:30:35;;;;;;;44.83;25.33;;;-0.60;99.70;;;;;;5094098;28;20382;-73
2023/01/18 08:33:02;;;;;;;62.28;28.52;;;-0.60;98.30;;;;;;5093890;28;20388;-73
2023/01/18 08:35:33;;;;;;;46.80;26.27;;;-0.70;99.90;;;;;;5093789;28;20855;-74
2023/01/18 08:38:00;;;;;;;58.17;27.77;;;-0.60;99.90;;;;;;5093584;28;20449;-73
2023/01/18 08:40:26;;;;;;;47.38;27.67;;;-0.60;99.90;;;;;;5094013;28;20386;-73
2023/01/18 08:42:57;;;;;;;53.13;27.35;;;-0.50;99.90;;;;;;5093720;28;20796;-73
2023/01/18 08:45:23;;;;;;;45.63;25.40;;;-0.50;99.90;;;;;;5093762;28;20417;-74
2023/01/18 08:47:57;;;;;;;53.13;28.30;;;-0.50;99.90;;;;;;5093793;28;20410;-73
2023/01/18 08:50:23;;;;;;;51.13;28.90;;;-0.40;99.90;;;;;;5096554;28;20742;-74
2023/01/18 08:52:51;;;;;;;53.45;29.90;;;-0.50;99.90;;;;;;5101901;28;20382;-73
2023/01/18 08:55:17;;;;;;;50.20;28.13;;;-0.40;99.90;;;;;;5107322;28;20720;-73
2023/01/18 08:57:43;;;;;;;46.45;27.33;;;-0.30;99.90;;;;;;5099619;28;20424;-73
2023/01/18 09:00:09;;;;;;;47.33;28.13;;;-0.10;98.10;;;;;;5093384;28;20378;-72
2023/01/18 09:02:35;;;;;;;47.92;28.08;;;-0.20;97.30;;;;;;5093319;28;20382;-73
2023/01/18 09:05:00;;;;;;;49.50;27.63;;;-0.20;94.50;;;;;;5093437;28;20427;-73
2023/01/18 09:07:26;;;;;;;49.55;29.15;;;-0.10;98.30;;;;;;5092740;28;20397;-75
2023/01/18 09:09:52;;;;;;;55.15;28.98;;;-0.10;98.10;;;;;;5093434;28;20417;-73
2023/01/18 09:12:18;;;;;;;52.55;28.75;;;0.00;99.50;;;;;;5093291;28;20386;-75
2023/01/18 09:14:43;;;;;;;50.80;28.42;;;0.10;99.40;;;;;;5092689;28;21076;-74
2023/01/18 09:17:09;;;;;;;53.83;29.03;;;0.20;97.50;;;;;;5095525;28;20436;-72
2023/01/18 09:19:34;;;;;;;46.63;27.60;;;0.30;96.50;;;;;;5092833;28;20382;-73
2023/01/18 09:22:00;;;;;;;47.95;27.50;;;0.30;94.50;;;;;;5072488;28;20965;-74
2023/01/18 09:24:26;;;;;;;46.08;27.08;;;0.30;93.00;;;;;;5096721;28;20393;-72
2023/01/18 09:26:52;;;;;;;49.50;27.83;;;0.30;91.40;;;;;;5089365;28;20494;-72
2023/01/18 09:29:18;;;;;;;48.80;26.73;;;0.50;89.10;;;;;;5077081;28;20403;-73
2023/01/18 09:31:44;;;;;;;49.88;27.65;;;0.40;90.10;;;;;;5076519;28;20455;-72
2023/01/18 09:34:12;;;;;;;50.22;28.20;;;0.50;87.90;;;;;;5074135;28;20828;-73
2023/01/18 09:36:38;;;;;;;51.67;29.02;;;0.50;90.30;;;;;;5074171;28;20490;-72
2023/01/18 09:39:04;;;;;;;49.10;26.80;;;0.50;90.70;;;;;;5091812;28;21207;-72
2023/01/18 09:41:43;;;;;;;54.40;28.73;;;0.60;90.30;;;;;;5095012;28;20489;-73
2023/01/18 09:44:15;;;;;;;57.05;30.23;;;0.70;91.30;;;;;;5094815;28;20415;-73
2023/01/18 09:46:42;;;;;;;50.03;29.55;;;0.70;91.50;;;;;;5094991;28;20393;-73
2023/01/18 09:49:20;;;;;;;46.85;26.52;;;0.80;90.70;;;;;;5094047;28;20462;-72
2023/01/18 09:52:18;;;;;;;50.47;27.88;;;0.80;87.70;;;;;;5093064;28;20385;-74
2023/01/18 09:55:04;;;;;;;49.78;27.38;;;0.80;90.50;;;;;;5071553;28;20383;-74
2023/01/18 09:57:43;;;;;;;51.42;26.88;;;0.90;88.20;;;;;;5050671;28;20411;-73
2023/01/18 10:00:38;;;;;;;42.80;26.23;;;0.90;85.10;;;;;;5089255;28;20389;-72
2023/01/18 10:03:11;;;;;;;41.42;25.42;;;0.90;84.10;;;;;;5081326;28;20404;-71
2023/01/18 10:05:44;;;;;;;42.42;25.10;;;0.90;81.00;;;;;;5090613;28;20423;-72
2023/01/18 10:08:19;;;;;;;49.80;27.05;;;0.90;80.40;;;;;;5090724;28;21080;-73
2023/01/18 10:10:54;;;;;;;50.72;27.52;;;0.80;82.20;;;;;;5085942;28;20409;-73
2023/01/18 10:13:41;;;;;;;49.80;26.80;;;0.70;84.80;;;;;;5083928;28;20453;-73
2023/01/18 10:16:13;;;;;;;50.80;28.33;;;0.70;86.50;;;;;;5072813;28;20383;-72
2023/01/18 10:18:52;;;;;;;49.70;27.20;;;0.70;87.90;;;;;;5073008;28;20379;-74
2023/01/18 10:21:24;;;;;;;48.75;28.30;;;0.70;87.70;;;;;;5073332;28;20368;-74
2023/01/18 10:24:01;;;;;;;50.88;28.58;;;0.70;88.10;;;;;;5085715;28;20447;-74
2023/01/18 10:26:29;;;;;;;53.30;29.98;;;0.80;87.00;;;;;;5092559;28;20401;-72
2023/01/18 10:29:01;;;;;;;51.92;29.20;;;0.70;87.70;;;;;;5093155;28;20386;-73
2023/01/18 10:31:33;;;;;;;48.93;30.17;;;0.70;86.80;;;;;;5072747;28;20461;-73
2023/01/18 10:34:01;;;;;;;53.10;29.50;;;0.80;89.00;;;;;;5091060;28;20402;-71
2023/01/18 10:36:37;;;;;;;56.28;31.77;;;0.80;90.00;;;;;;5090972;28;20818;-72
2023/01/18 10:39:16;;;;;;;59.60;32.67;;;0.90;90.00;;;;;;5092585;28;20385;-74
2023/01/18 10:41:44;;;;;;;60.17;32.50;;;0.90;91.00;;;;;;5075313;28;20946;-73
2023/01/18 10:44:10;;;;;;;52.05;28.83;;;0.90;91.60;;;;;;5091810;28;20382;-73
2023/01/18 10:46:35;;;;;;;48.53;28.83;;;1.00;92.00;;;;;;5072290;28;20393;-72
2023/01/18 10:49:01;;;;;;;47.20;28.00;;;1.00;90.80;;;;;;5091366;28;20866;-72
2023/01/18 10:51:36;;;;;;;47.97;28.17;;;1.00;89.00;;;;;;5073213;28;20381;-74
2023/01/18 10:54:16;;;;;;;51.88;28.13;;;1.10;86.30;;;;;;5091178;28;20381;-72
2023/01/18 10:56:43;;;;;;;51.15;29.23;;;1.10;82.80;;;;;;5091069;28;20406;-73
2023/01/18 10:59:24;;;;;;;52.90;27.67;;;1.20;85.30;;;;;;5091327;28;20443;-73
2023/01/18 11:01:55;;;;;;;49.97;27.95;;;1.30;86.20;;;;;;5091306;28;20385;-74
2023/01/18 11:04:26;;;;;;;45.10;26.30;;;1.40;84.00;;;;;;5090373;28;20787;-75
2023/01/18 11:06:56;;;;;;;43.97;26.42;;;1.60;80.20;;;;;;5090082;28;20401;-74
2023/01/18 11:09:47;;;;;;;52.17;27.98;;;1.80;77.10;;;;;;5091549;28;20382;-74
2023/01/18 11:12:35;;;;;;;46.95;26.75;;;1.80;76.20;;;;;;5091086;28;20373;-74
2023/01/18 11:15:13;;;;;;;48.10;27.30;;;1.80;77.00;;;;;;5073271;28;20897;-73
2023/01/18 11:17:41;;;;;;;46.30;29.17;;;1.80;76.30;;;;;;5091168;28;20405;-73
2023/01/18 11:20:17;;;;;;;44.05;27.58;;;2.00;76.80;;;;;;5091000;28;20723;-73
2023/01/18 11:22:57;;;;;;;47.60;27.55;;;2.10;75.30;;;;;;5091033;28;20385;-72
2023/01/18 11:25:24;;;;;;;53.15;30.23;;;2.20;75.90;;;;;;5091025;28;20492;-73
2023/01/18 11:27:49;;;;;;;48.40;27.70;;;2.20;76.80;;;;;;5093082;28;20420;-74
2023/01/18 11:30:23;;;;;;;47.53;28.17;;;2.20;74.90;;;;;;5104241;28;20453;-73
2023/01/18 11:32:50;;;;;;;42.90;26.40;;;2.30;74.20;;;;;;5110230;28;20378;-73
2023/01/18 11:35:35;;;;;;;43.08;26.08;;;2.30;71.30;;;;;;5095593;28;20801;-72
2023/01/18 11:38:05;;;;;;;45.70;27.00;;;2.30;72.00;;;;;;5090726;28;20481;-73
2023/01/18 11:40:33;;;;;;;53.22;26.80;;;2.30;70.90;;;;;;5091232;28;20478;-73
2023/01/18 11:43:13;;;;;;;48.88;28.55;;;2.30;72.60;;;;;;5090698;28;20409;-73
2023/01/18 11:45:59;;;;;;;55.00;28.55;;;2.40;71.90;;;;;;5089918;28;20480;-72
2023/01/18 11:48:29;;;;;;;49.03;27.50;;;2.50;70.40;;;;;;5072704;28;20400;-73
2023/01/18 11:51:19;;;;;;;54.10;27.15;;;2.50;71.10;;;;;;5089710;28;20412;-72
2023/01/18 11:54:05;;;;;;;49.22;26.25;;;2.60;71.80;;;;;;5090794;28;20374;-74
2023/01/18 11:56:39;;;;;;;46.78;27.08;;;2.80;70.80;;;;;;5090299;28;20719;-73
2023/01/18 11:59:13;;;;;;;48.17;26.23;;;2.90;69.50;;;;;;5081513;28;20469;-72
2023/01/18 12:02:06;;;;;;;46.75;27.13;;;3.00;66.70;;;;;;5110620;28;20466;-72
2023/01/18 12:04:38;;;;;;;56.22;27.33;;;2.90;68.00;;;;;;5109305;28;20370;-73
2023/01/18 12:07:44;;;;;;;42.53;24.88;;;3.00;68.40;;;;;;5098727;28;20440;-72
2023/01/18 12:10:32;;;;;;;42.17;25.33;;;2.90;67.70;;;;;;5054254;28;20490;-73
2023/01/18 12:13:29;;;;;;;46.08;25.25;;;2.90;68.60;;;;;;5094927;28;20386;-75
2023/01/18 12:16:13;;;;;;;38.43;22.50;;;3.00;64.70;;;;;;5094259;28;20848;-73
2023/01/18 12:19:23;;;;;;;37.50;21.40;;;3.00;61.60;;;;;;5064315;28;20396;-73
2023/01/18 12:22:07;;;;;;;39.13;23.02;;;3.20;60.90;;;;;;5089701;28;20389;-74
2023/01/18 12:25:17;;;;;;;38.30;21.95;;;3.30;60.80;;;;;;5094331;28;20396;-73
2023/01/18 12:27:55;;;;;;;39.65;21.95;;;3.30;60.00;;;;;;5093234;28;20484;-73
2023/01/18 12:30:26;;;;;;;36.45;21.92;;;3.40;58.60;;;;;;5093395;28;20932;-73
2023/01/18 12:33:11;;;;;;;41.13;21.50;;;3.50;55.50;;;;;;5093309;28;20382;-73
2023/01/18 12:36:00;;;;;;;36.97;21.92;;;3.60;56.00;;;;;;5092909;28;20455;-73
2023/01/18 12:38:31;;;;;;;33.75;18.80;;;3.60;55.80;;;;;;5075038;28;20398;-74
2023/01/18 12:41:30;;;;;;;37.60;19.90;;;3.50;56.30;;;;;;5075004;28;20401;-73
2023/01/18 12:44:20;;;;;;;37.92;20.73;;;3.70;55.20;;;;;;5074533;28;20394;-70
2023/01/18 12:47:17;;;;;;;34.78;20.25;;;3.80;55.90;;;;;;5091759;28;20401;-73
2023/01/18 12:49:53;;;;;;;32.33;17.90;;;3.90;55.10;;;;;;5086883;28;20877;-74
2023/01/18 12:52:21;;;;;;;33.25;16.77;;;3.90;53.10;;;;;;5073775;28;20387;-74
2023/01/18 12:54:50;;;;;;;33.10;17.20;;;3.90;52.50;;;;;;5081486;28;20506;-72
2023/01/18 12:57:17;;;;;;;29.10;17.63;;;4.00;51.90;;;;;;5072324;28;20419;-73
2023/01/18 13:00:00;;;;;;;30.60;17.27;;;3.90;52.20;;;;;;5070583;28;20418;-74
2023/01/18 13:02:37;;;;;;;37.30;16.20;;;4.00;52.60;;;;;;5070821;28;20379;-74
2023/01/18 13:05:31;;;;;;;27.30;15.20;;;4.10;49.40;;;;;;5070130;28;20407;-73
2023/01/18 13:08:19;;;;;;;28.43;13.30;;;4.20;48.50;;;;;;5088748;28;20440;-72
2023/01/18 13:10:55;;;;;;;22.73;13.40;;;4.30;46.80;;;;;;5089816;28;20382;-75
2023/01/18 13:13:27;;;;;;;22.95;11.95;;;4.20;46.70;;;;;;5093622;28;20374;-74
2023/01/18 13:16:11;;;;;;;21.55;11.80;;;4.20;45.90;;;;;;5094213;28;20386;-73
2023/01/18 13:18:41;;;;;;;26.50;12.13;;;4.30;45.80;;;;;;5093428;28;20441;-73
2023/01/18 13:21:25;;;;;;;22.67;11.70;;;4.20;47.00;;;;;;5093330;28;20366;-74
2023/01/18 13:24:29;;;;;;;22.75;12.02;;;4.20;45.90;;;;;;5093604;28;20374;-74